Time;durP1;ratioP1;P1;durP2;ratioP2;P2;SDS_P1;SDS_P2;PMS_P1;PMS_P2;Temp;Humidity;BMP_temperature;BMP_pressure;BME280_temperature;BME280_humidity;BME280_pressure;Samples;Min_cycle;Max_cycle;Signal;HPM_P1;HPM_P2
2023/12/28 00:00:10;;;;;;;28.13;13.05;;;;;;;0.18;100.00;98452.38;2597312;28;20239;-85
2023/12/28 00:01:26;;;;;;;32.85;14.20;;;;;;;0.21;100.00;98447.25;2586463;28;20034;-85
2023/12/28 00:02:43;;;;;;;32.83;13.90;;;;;;;0.30;100.00;98447.41;2597515;28;20030;-86
2023/12/28 00:03:59;;;;;;;37.63;14.35;;;;;;;0.35;100.00;98444.84;2603418;28;20108;-85
2023/12/28 00:05:15;;;;;;;27.30;13.15;;;;;;;0.33;100.00;98444.84;2602881;28;20013;-86
2023/12/28 00:06:30;;;;;;;30.45;13.32;;;;;;;-0.08;100.00;98447.72;2602975;28;20029;-86
2023/12/28 00:07:46;;;;;;;27.70;13.20;;;;;;;-0.03;100.00;98443.50;2603045;28;20411;-86
2023/12/28 00:09:03;;;;;;;30.50;13.23;;;;;;;-0.08;100.00;98442.56;2592273;28;20465;-85
2023/12/28 00:10:18;;;;;;;31.48;13.98;;;;;;;-0.04;100.00;98450.38;2597292;28;20033;-85
2023/12/28 00:11:34;;;;;;;29.40;13.07;;;;;;;-0.13;100.00;98441.66;2603197;28;20384;-85
2023/12/28 00:12:50;;;;;;;25.13;12.48;;;;;;;-0.22;100.00;98439.78;2581854;28;20047;-85
2023/12/28 00:14:06;;;;;;;24.20;11.88;;;;;;;-0.43;100.00;98442.03;2584399;28;20042;-86
2023/12/28 00:15:23;;;;;;;26.73;12.50;;;;;;;-0.19;100.00;98437.28;2602946;28;20036;-86
2023/12/28 00:16:40;;;;;;;28.58;12.13;;;;;;;-0.14;100.00;98435.63;2592542;28;20050;-85
2023/12/28 00:17:55;;;;;;;28.00;12.40;;;;;;;-0.17;100.00;98433.00;2600395;28;20029;-86
2023/12/28 00:19:12;;;;;;;26.88;11.93;;;;;;;-0.33;100.00;98429.31;2602904;28;20064;-85
2023/12/28 00:20:27;;;;;;;25.70;11.63;;;;;;;-0.51;100.00;98420.47;2602729;28;20025;-85
2023/12/28 00:21:44;;;;;;;25.73;12.00;;;;;;;-0.39;100.00;98421.53;2603063;28;20033;-86
2023/12/28 00:23:00;;;;;;;24.75;11.38;;;;;;;-0.66;100.00;98422.81;2596561;28;20401;-85
2023/12/28 00:24:21;;;;;;;23.83;11.93;;;;;;;-0.59;100.00;98428.06;2603611;28;20037;-85
2023/12/28 00:25:37;;;;;;;27.70;11.95;;;;;;;-0.54;100.00;98427.28;2602079;28;20078;-85
2023/12/28 00:26:52;;;;;;;26.88;11.90;;;;;;;-0.41;100.00;98429.22;2586368;28;20488;-85
2023/12/28 00:28:08;;;;;;;21.08;10.77;;;;;;;-0.29;100.00;98431.97;2596400;28;20044;-85
2023/12/28 00:29:24;;;;;;;22.35;11.27;;;;;;;-0.16;100.00;98430.44;2602390;28;20094;-86
2023/12/28 00:30:41;;;;;;;23.05;11.50;;;;;;;-0.16;100.00;98427.00;2601558;28;20409;-85
2023/12/28 00:31:57;;;;;;;27.13;11.52;;;;;;;-0.07;100.00;98429.72;2603926;28;20033;-86
2023/12/28 00:33:13;;;;;;;20.65;9.93;;;;;;;-0.07;100.00;98434.00;2603148;28;20036;-85
2023/12/28 00:34:28;;;;;;;21.90;10.93;;;;;;;-0.26;100.00;98431.16;2603730;28;20025;-86
2023/12/28 00:35:45;;;;;;;20.42;9.90;;;;;;;-0.39;100.00;98421.53;2601918;28;20094;-86
2023/12/28 00:37:02;;;;;;;20.73;10.90;;;;;;;-0.40;100.00;98418.06;2597048;28;20030;-86
2023/12/28 00:38:19;;;;;;;21.15;10.23;;;;;;;-0.20;100.00;98410.66;2602812;28;20029;-85
2023/12/28 00:39:35;;;;;;;23.20;10.55;;;;;;;-0.41;100.00;98405.22;2592456;28;20042;-85
2023/12/28 00:40:51;;;;;;;21.98;10.82;;;;;;;-0.29;100.00;98401.09;2589939;28;20416;-86
2023/12/28 00:42:07;;;;;;;23.23;9.82;;;;;;;-0.15;100.00;98401.28;2596365;28;20041;-86
2023/12/28 00:43:23;;;;;;;19.63;10.00;;;;;;;-0.15;100.00;98393.56;2602580;28;20502;-86
2023/12/28 00:44:39;;;;;;;23.50;11.23;;;;;;;-0.09;100.00;98399.66;2602456;28;20045;-85
2023/12/28 00:45:55;;;;;;;22.23;10.80;;;;;;;-0.02;100.00;98394.63;2596111;28;20041;-85
2023/12/28 00:47:11;;;;;;;25.33;10.98;;;;;;;-0.04;100.00;98395.44;2596128;28;20033;-86
2023/12/28 00:48:27;;;;;;;20.38;10.07;;;;;;;-0.30;100.00;98395.91;2602666;28;20090;-85
2023/12/28 00:49:43;;;;;;;21.95;9.75;;;;;;;-0.33;100.00;98401.91;2595788;28;20033;-85
2023/12/28 00:50:59;;;;;;;21.00;10.02;;;;;;;-0.40;100.00;98397.50;2602542;28;20045;-85
2023/12/28 00:52:15;;;;;;;18.27;8.85;;;;;;;-0.47;100.00;98401.69;2601641;28;20049;-86
2023/12/28 00:53:31;;;;;;;20.60;9.70;;;;;;;-0.72;100.00;98403.84;2603258;28;20495;-85
2023/12/28 00:54:47;;;;;;;19.15;10.40;;;;;;;-0.58;100.00;98398.94;2602448;28;20048;-85
2023/12/28 00:56:03;;;;;;;21.27;8.40;;;;;;;-0.36;100.00;98399.25;2603231;28;20030;-85
2023/12/28 00:57:19;;;;;;;29.23;11.38;;;;;;;-0.33;100.00;98399.34;2602089;28;20469;-85
2023/12/28 00:58:39;;;;;;;24.60;11.48;;;;;;;-0.12;100.00;98402.19;2602586;28;20046;-86
2023/12/28 00:59:55;;;;;;;20.25;10.50;;;;;;;-0.09;100.00;98408.22;2601850;28;20040;-87
2023/12/28 01:01:11;;;;;;;22.80;8.52;;;;;;;-0.57;100.00;98405.81;2596626;28;20045;-85
2023/12/28 01:02:27;;;;;;;20.48;9.18;;;;;;;-0.23;100.00;98397.75;2602402;28;20476;-86
2023/12/28 01:03:43;;;;;;;19.77;10.05;;;;;;;-0.06;100.00;98405.72;2603655;28;20110;-86
2023/12/28 01:04:59;;;;;;;24.25;10.75;;;;;;;-0.10;100.00;98401.34;2602057;28;20033;-86
2023/12/28 01:06:15;;;;;;;21.08;10.05;;;;;;;-0.18;100.00;98408.13;2596646;28;20029;-86
2023/12/28 01:07:31;;;;;;;25.02;11.38;;;;;;;-0.37;100.00;98410.41;2602318;28;20045;-86
2023/12/28 01:08:47;;;;;;;21.42;9.80;;;;;;;-0.15;100.00;98414.16;2602959;28;20029;-85
2023/12/28 01:10:05;;;;;;;25.65;10.13;;;;;;;-0.16;100.00;98415.00;2595817;28;20025;-85
2023/12/28 01:11:21;;;;;;;21.60;10.35;;;;;;;-0.20;100.00;98418.38;2596171;28;20045;-85
2023/12/28 01:12:37;;;;;;;22.58;9.73;;;;;;;-0.15;100.00;98424.44;2595898;28;20578;-86
2023/12/28 01:13:53;;;;;;;24.63;9.80;;;;;;;-0.34;100.00;98431.06;2596417;28;20069;-86
2023/12/28 01:15:10;;;;;;;20.65;9.15;;;;;;;-0.33;100.00;98434.47;2602284;28;20033;-85
2023/12/28 01:16:26;;;;;;;22.02;10.15;;;;;;;-0.36;100.00;98437.00;2591483;28;20392;-86
2023/12/28 01:17:41;;;;;;;22.30;9.25;;;;;;;-0.37;100.00;98437.84;2589543;28;20037;-85
2023/12/28 01:18:57;;;;;;;18.27;8.82;;;;;;;-0.32;100.00;98441.34;2602450;28;20034;-85
2023/12/28 01:20:13;;;;;;;20.88;9.55;;;;;;;-0.32;100.00;98436.19;2591833;28;20038;-86
2023/12/28 01:21:29;;;;;;;19.83;9.00;;;;;;;-0.30;100.00;98440.53;2589186;28;20060;-85
2023/12/28 01:22:46;;;;;;;22.08;9.43;;;;;;;-0.44;100.00;98432.59;2603122;28;20483;-85
2023/12/28 01:24:04;;;;;;;19.77;9.25;;;;;;;-0.41;100.00;98433.50;2601844;28;20090;-86
2023/12/28 01:25:21;;;;;;;17.17;8.82;;;;;;;-0.59;100.00;98445.19;2603118;28;20033;-86
2023/12/28 01:26:37;;;;;;;19.17;8.85;;;;;;;-0.62;100.00;98446.03;2602605;28;20029;-86
2023/12/28 01:27:53;;;;;;;18.98;9.00;;;;;;;-0.54;100.00;98441.00;2602879;28;20049;-85
2023/12/28 01:29:08;;;;;;;26.90;10.02;;;;;;;-0.45;100.00;98442.88;2602192;28;20041;-85
2023/12/28 01:30:24;;;;;;;18.20;9.07;;;;;;;-0.49;100.00;98441.06;2603335;28;20479;-86
2023/12/28 01:31:40;;;;;;;17.75;8.27;;;;;;;-0.59;100.00;98440.94;2602890;28;20034;-85
2023/12/28 01:32:57;;;;;;;22.48;9.77;;;;;;;-0.80;100.00;98436.28;2592256;28;20040;-86
2023/12/28 01:34:13;;;;;;;23.85;10.05;;;;;;;-0.57;100.00;98422.94;2588696;28;20048;-86
2023/12/28 01:35:29;;;;;;;24.38;11.10;;;;;;;-0.71;100.00;98422.72;2602970;28;20025;-85
2023/12/28 01:36:45;;;;;;;24.52;10.80;;;;;;;-0.54;100.00;98435.88;2602601;28;20388;-85
2023/12/28 01:38:01;;;;;;;18.33;8.85;;;;;;;-0.50;100.00;98442.78;2592025;28;20053;-85
2023/12/28 01:39:18;;;;;;;17.90;8.57;;;;;;;-0.76;100.00;98444.94;2589460;28;20120;-85
2023/12/28 01:40:34;;;;;;;23.42;8.60;;;;;;;-0.89;100.00;98439.56;2595740;28;20038;-86
2023/12/28 01:41:50;;;;;;;21.80;8.73;;;;;;;-0.80;100.00;98431.16;2602001;28;20033;-85
2023/12/28 01:43:06;;;;;;;28.85;9.02;;;;;;;-0.75;100.00;98421.78;2602239;28;20460;-85
2023/12/28 01:44:23;;;;;;;44.60;9.55;;;;;;;-0.52;100.00;98429.03;2595696;28;20522;-85
2023/12/28 01:45:38;;;;;;;34.85;9.68;;;;;;;-0.52;100.00;98425.59;2602903;28;20112;-86
2023/12/28 01:46:56;;;;;;;39.03;8.70;;;;;;;-0.54;100.00;98435.88;2601812;28;20092;-85
2023/12/28 01:48:13;;;;;;;28.08;8.07;;;;;;;-0.43;100.00;98436.88;2596509;28;20030;-86
2023/12/28 01:49:29;;;;;;;24.98;8.57;;;;;;;-0.62;100.00;98435.75;2602180;28;20116;-85
2023/12/28 01:50:45;;;;;;;25.98;8.52;;;;;;;-0.56;100.00;98442.66;2602960;28;20373;-84
2023/12/28 01:52:02;;;;;;;21.17;8.73;;;;;;;-0.65;100.00;98438.25;2591584;28;20117;-86
2023/12/28 01:53:18;;;;;;;27.25;9.98;;;;;;;-0.83;100.00;98449.09;2589497;28;20626;-85
2023/12/28 01:54:35;;;;;;;28.95;9.05;;;;;;;-0.89;100.00;98448.97;2602679;28;20033;-85
2023/12/28 01:55:53;;;;;;;27.33;8.07;;;;;;;-0.87;100.00;98448.16;2602629;28;20038;-85
2023/12/28 01:57:11;;;;;;;38.13;9.02;;;;;;;-0.70;100.00;98450.16;2603388;28;20017;-85
2023/12/28 01:58:29;;;;;;;56.75;9.27;;;;;;;-0.69;100.00;98448.47;2602497;28;20029;-85
2023/12/28 01:59:45;;;;;;;35.70;8.02;;;;;;;-0.82;100.00;98434.53;2602523;28;20032;-85
2023/12/28 02:01:01;;;;;;;55.13;9.65;;;;;;;-0.79;100.00;98442.28;2595725;28;20041;-85
2023/12/28 02:02:18;;;;;;;38.70;8.63;;;;;;;-0.81;100.00;98443.97;2596400;28;20051;-86
2023/12/28 02:03:34;;;;;;;19.67;7.70;;;;;;;-0.86;100.00;98434.47;2602077;28;20034;-85
2023/12/28 02:04:51;;;;;;;30.02;9.27;;;;;;;-0.86;100.00;98428.44;2603731;28;20055;-85
2023/12/28 02:06:07;;;;;;;38.38;9.95;;;;;;;-0.90;100.00;98427.56;2602540;28;20039;-86
2023/12/28 02:07:24;;;;;;;52.05;9.02;;;;;;;-1.00;100.00;98420.50;2602613;28;20025;-85
2023/12/28 02:08:40;;;;;;;36.22;8.93;;;;;;;-1.01;100.00;98418.78;2601316;28;20102;-85
2023/12/28 02:09:56;;;;;;;34.95;8.63;;;;;;;-1.04;100.00;98424.72;2592463;28;20470;-85
2023/12/28 02:11:12;;;;;;;21.63;7.80;;;;;;;-1.29;100.00;98416.56;2595347;28;20025;-86
2023/12/28 02:12:28;;;;;;;26.10;7.75;;;;;;;-1.24;100.00;98421.78;2591424;28;20052;-86
2023/12/28 02:13:44;;;;;;;42.70;8.60;;;;;;;-1.37;100.00;98422.38;2579185;28;20046;-85
2023/12/28 02:15:00;;;;;;;19.45;7.82;;;;;;;-1.25;100.00;98420.06;2600262;28;20430;-85
2023/12/28 02:16:25;;;;;;;34.88;7.65;;;;;;;-1.26;100.00;98431.16;2601588;28;20427;-85
2023/12/28 02:17:41;;;;;;;8.18;4.40;;;;;;;-1.54;100.00;98438.31;2597066;28;20044;-85
2023/12/28 02:19:03;;;;;;;17.23;5.13;;;;;;;-1.54;100.00;98435.75;2601981;28;20495;-85
2023/12/28 02:20:20;;;;;;;33.13;7.85;;;;;;;-1.49;100.00;98438.44;2602347;28;20109;-85
2023/12/28 02:21:38;;;;;;;29.98;6.88;;;;;;;-1.24;100.00;98437.19;2595558;28;20139;-85
2023/12/28 02:22:55;;;;;;;31.38;6.90;;;;;;;-1.00;100.00;98433.38;2602686;28;20056;-85
2023/12/28 02:24:13;;;;;;;36.63;8.10;;;;;;;-1.02;100.00;98437.63;2601570;28;20064;-85
2023/12/28 02:25:29;;;;;;;28.90;7.03;;;;;;;-1.11;100.00;98435.75;2596315;28;20029;-85
2023/12/28 02:26:44;;;;;;;27.63;7.40;;;;;;;-1.12;100.00;98431.41;2601896;28;20037;-85
2023/12/28 02:28:01;;;;;;;27.27;7.63;;;;;;;-1.23;100.00;98428.66;2602462;28;20533;-85
2023/12/28 02:29:18;;;;;;;34.75;6.68;;;;;;;-1.35;100.00;98431.84;2595258;28;20103;-85
2023/12/28 02:30:34;;;;;;;18.80;7.65;;;;;;;-1.24;100.00;98421.78;2596141;28;20106;-86
2023/12/28 02:31:58;;;;;;;25.90;8.10;;;;;;;-1.08;100.00;98425.50;2585066;28;20084;-85
2023/12/28 02:33:20;;;;;;;19.27;7.15;;;;;;;-1.22;100.00;98419.25;2592119;28;20495;-85
2023/12/28 02:34:42;;;;;;;36.88;7.90;;;;;;;-1.36;100.00;98426.69;2602061;28;20431;-85
2023/12/28 02:36:02;;;;;;;27.08;8.55;;;;;;;-1.50;100.00;98421.28;2602084;28;20029;-85
2023/12/28 02:37:18;;;;;;;20.58;6.95;;;;;;;-1.66;100.00;98409.81;2595542;28;20442;-85
2023/12/28 02:38:36;;;;;;;20.00;7.30;;;;;;;-1.54;100.00;98409.19;2596084;28;20479;-86
2023/12/28 02:39:53;;;;;;;16.17;6.88;;;;;;;-1.51;100.00;98404.16;2602056;28;20538;-85
2023/12/28 02:41:10;;;;;;;15.70;6.57;;;;;;;-1.50;100.00;98403.31;2602353;28;20029;-85
2023/12/28 02:42:26;;;;;;;15.88;6.18;;;;;;;-1.61;100.00;98403.06;2601799;28;20503;-85
2023/12/28 02:43:42;;;;;;;13.38;6.50;;;;;;;-1.34;100.00;98389.03;2602671;28;20040;-85
2023/12/28 02:44:58;;;;;;;17.23;7.25;;;;;;;-1.31;100.00;98391.69;2602431;28;20033;-85
2023/12/28 02:46:14;;;;;;;14.55;7.05;;;;;;;-1.24;100.00;98385.81;2602536;28;20033;-85
2023/12/28 02:47:30;;;;;;;13.52;6.53;;;;;;;-1.20;100.00;98373.91;2603017;28;20052;-85
2023/12/28 02:48:46;;;;;;;13.45;6.65;;;;;;;-1.59;100.00;98375.75;2601574;28;20029;-86
2023/12/28 02:50:02;;;;;;;17.83;7.18;;;;;;;-1.32;100.00;98366.84;2601550;28;20079;-85
2023/12/28 02:51:20;;;;;;;20.05;6.75;;;;;;;-1.45;100.00;98364.06;2584860;28;20447;-85
2023/12/28 02:52:36;;;;;;;15.48;6.78;;;;;;;-1.68;100.00;98373.84;2590385;28;20122;-85
2023/12/28 02:53:53;;;;;;;13.35;5.93;;;;;;;-1.42;100.00;98364.09;2603655;28;20059;-85
2023/12/28 02:55:09;;;;;;;14.23;6.57;;;;;;;-1.44;100.00;98352.06;2593509;28;20046;-85
2023/12/28 02:56:25;;;;;;;17.25;6.95;;;;;;;-1.02;100.00;98348.53;2597487;28;20100;-85
2023/12/28 02:57:41;;;;;;;16.70;6.90;;;;;;;-1.04;100.00;98357.91;2603705;28;20061;-85
2023/12/28 02:58:57;;;;;;;16.98;7.25;;;;;;;-1.01;100.00;98349.41;2605386;28;20470;-85
2023/12/28 03:00:13;;;;;;;19.58;7.97;;;;;;;-1.01;100.00;98347.69;2604053;28;20418;-85
2023/12/28 03:01:29;;;;;;;13.70;6.55;;;;;;;-1.03;100.00;98354.50;2596811;28;20021;-85
2023/12/28 03:02:45;;;;;;;6.25;3.55;;;;;;;-1.39;100.00;98359.84;2597087;28;20513;-85
2023/12/28 03:04:02;;;;;;;15.65;6.63;;;;;;;-1.32;100.00;98362.56;2586941;28;20125;-85
2023/12/28 03:05:18;;;;;;;18.15;6.43;;;;;;;-1.44;100.00;98364.91;2591464;28;20045;-85
2023/12/28 03:06:35;;;;;;;14.02;5.93;;;;;;;-1.57;100.00;98368.94;2603441;28;20036;-85
2023/12/28 03:07:51;;;;;;;16.95;5.60;;;;;;;-1.52;100.00;98363.91;2604888;28;20037;-85
2023/12/28 03:09:07;;;;;;;15.20;6.70;;;;;;;-1.36;100.00;98370.19;2604001;28;20029;-85
2023/12/28 03:10:23;;;;;;;21.83;5.95;;;;;;;-1.19;100.00;98368.81;2603861;28;20044;-85
2023/12/28 03:11:39;;;;;;;15.63;6.70;;;;;;;-1.18;100.00;98370.53;2596243;28;20037;-85
2023/12/28 03:12:55;;;;;;;14.52;5.88;;;;;;;-1.34;100.00;98371.94;2597718;28;20034;-86
2023/12/28 03:14:11;;;;;;;22.98;6.55;;;;;;;-1.11;100.00;98376.66;2603522;28;20037;-85
2023/12/28 03:15:27;;;;;;;24.10;7.28;;;;;;;-1.06;100.00;98369.00;2604003;28;20454;-85
2023/12/28 03:16:43;;;;;;;22.70;6.45;;;;;;;-1.00;100.00;98364.81;2603390;28;20128;-85
2023/12/28 03:17:59;;;;;;;31.70;7.85;;;;;;;-0.87;100.00;98365.03;2603201;28;20395;-85
2023/12/28 03:19:15;;;;;;;17.50;5.90;;;;;;;-0.98;100.00;98376.84;2597127;28;20434;-86
2023/12/28 03:20:31;;;;;;;17.13;6.30;;;;;;;-1.03;100.00;98380.19;2603346;28;20087;-85
2023/12/28 03:21:47;;;;;;;11.93;5.70;;;;;;;-1.17;100.00;98376.53;2603764;28;20026;-85
2023/12/28 03:23:03;;;;;;;26.25;6.30;;;;;;;-1.10;100.00;98377.50;2586601;28;20385;-85
2023/12/28 03:24:19;;;;;;;19.35;5.95;;;;;;;-1.09;100.00;98362.13;2591670;28;20045;-85
2023/12/28 03:25:35;;;;;;;13.90;6.78;;;;;;;-1.02;100.00;98363.09;2596920;28;20368;-85
2023/12/28 03:26:52;;;;;;;19.08;6.28;;;;;;;-1.16;100.00;98362.84;2597404;28;20134;-85
2023/12/28 03:28:08;;;;;;;32.63;7.82;;;;;;;-1.25;100.00;98370.41;2596766;28;20388;-85
2023/12/28 03:29:24;;;;;;;53.45;8.57;;;;;;;-1.07;100.00;98368.16;2596987;28;20042;-86
2023/12/28 03:30:40;;;;;;;47.80;8.43;;;;;;;-1.03;100.00;98369.06;2603170;28;20086;-85
2023/12/28 03:31:56;;;;;;;44.53;8.25;;;;;;;-1.23;100.00;98371.28;2603572;28;20032;-85
2023/12/28 03:33:13;;;;;;;23.48;7.47;;;;;;;-1.44;100.00;98363.22;2596879;28;20078;-85
2023/12/28 03:34:30;;;;;;;20.65;7.45;;;;;;;-1.52;100.00;98358.78;2597292;28;20469;-85
2023/12/28 03:35:46;;;;;;;19.25;6.57;;;;;;;-1.59;100.00;98352.66;2603340;28;20079;-85
2023/12/28 03:37:02;;;;;;;19.52;6.97;;;;;;;-1.38;100.00;98357.31;2604456;28;20041;-85
2023/12/28 03:38:20;;;;;;;14.27;5.57;;;;;;;-1.65;100.00;98355.09;2592164;28;20069;-85
2023/12/28 03:39:36;;;;;;;16.20;7.10;;;;;;;-1.40;100.00;98358.13;2598272;28;20029;-85
2023/12/28 03:40:52;;;;;;;12.80;5.95;;;;;;;-1.52;100.00;98356.19;2592657;28;20075;-86
2023/12/28 03:42:09;;;;;;;11.15;5.88;;;;;;;-1.64;100.00;98356.81;2597812;28;20026;-85
2023/12/28 03:43:25;;;;;;;19.40;7.05;;;;;;;-1.62;100.00;98360.28;2603543;28;20029;-85
2023/12/28 03:44:41;;;;;;;13.15;6.28;;;;;;;-1.34;100.00;98358.22;2604449;28;20072;-85
2023/12/28 03:45:57;;;;;;;12.55;6.25;;;;;;;-1.64;100.00;98342.28;2603669;28;20021;-85
2023/12/28 03:47:13;;;;;;;13.57;6.78;;;;;;;-1.42;100.00;98342.69;2603605;28;20056;-86
2023/12/28 03:48:29;;;;;;;14.15;6.22;;;;;;;-1.46;100.00;98354.63;2596558;28;20037;-85
2023/12/28 03:49:45;;;;;;;14.88;7.15;;;;;;;-1.22;100.00;98344.75;2596621;28;20118;-84
2023/12/28 03:51:01;;;;;;;17.90;7.65;;;;;;;-1.19;100.00;98349.94;2596792;28;20029;-85
2023/12/28 03:52:17;;;;;;;16.10;7.80;;;;;;;-1.29;100.00;98342.06;2603165;28;20037;-86
2023/12/28 03:53:33;;;;;;;17.15;7.85;;;;;;;-1.20;100.00;98345.66;2603339;28;20041;-85
2023/12/28 03:54:49;;;;;;;13.18;6.88;;;;;;;-1.22;100.00;98340.47;2595966;28;20033;-85
2023/12/28 03:56:05;;;;;;;14.43;7.00;;;;;;;-1.55;100.00;98341.59;2603413;28;20028;-85
2023/12/28 03:57:21;;;;;;;15.27;6.10;;;;;;;-1.51;100.00;98352.78;2603194;28;20053;-85
2023/12/28 03:58:37;;;;;;;12.35;6.30;;;;;;;-1.35;100.00;98354.81;2603421;28;20026;-85
2023/12/28 03:59:53;;;;;;;13.57;6.13;;;;;;;-1.27;100.00;98357.50;2596358;28;20084;-85
2023/12/28 04:01:09;;;;;;;11.77;6.05;;;;;;;-1.34;100.00;98365.94;2596652;28;20079;-85
2023/12/28 04:02:31;;;;;;;15.52;6.85;;;;;;;-1.25;100.00;98357.56;2602918;28;20071;-85
2023/12/28 04:03:48;;;;;;;11.23;5.63;;;;;;;-1.50;100.00;98360.50;2592877;28;20050;-85
2023/12/28 04:05:04;;;;;;;14.32;5.63;;;;;;;-1.68;100.00;98360.16;2590613;28;20552;-85
2023/12/28 04:06:22;;;;;;;11.88;5.65;;;;;;;-1.52;100.00;98358.78;2597394;28;20029;-85
2023/12/28 04:07:37;;;;;;;15.35;5.78;;;;;;;-1.32;100.00;98362.56;2596529;28;20026;-85
2023/12/28 04:08:56;;;;;;;10.30;3.50;;;;;;;-1.88;100.00;98361.50;2597190;28;20473;-85
2023/12/28 04:10:12;;;;;;;13.68;5.82;;;;;;;-1.64;100.00;98349.13;2596814;28;20517;-85
2023/12/28 04:11:28;;;;;;;19.55;6.10;;;;;;;-1.36;100.00;98350.50;2597291;28;20035;-85
2023/12/28 04:12:44;;;;;;;17.88;6.15;;;;;;;-1.51;100.00;98356.22;2585823;28;20041;-85
2023/12/28 04:14:00;;;;;;;22.45;6.18;;;;;;;-1.48;100.00;98355.41;2597567;28;20040;-85
2023/12/28 04:15:16;;;;;;;17.63;5.57;;;;;;;-1.47;100.00;98352.84;2602518;28;20036;-85
2023/12/28 04:16:32;;;;;;;43.88;7.63;;;;;;;-1.42;100.00;98355.50;2597073;28;20530;-85
2023/12/28 04:17:48;;;;;;;55.75;8.23;;;;;;;-1.26;100.00;98359.25;2602749;28;20021;-85
2023/12/28 04:19:04;;;;;;;35.65;7.03;;;;;;;-1.22;100.00;98349.91;2603147;28;20041;-85
2023/12/28 04:20:20;;;;;;;14.50;6.65;;;;;;;-1.56;100.00;98343.28;2595775;28;20048;-85
2023/12/28 04:21:35;;;;;;;46.47;6.93;;;;;;;-1.70;100.00;98339.59;2603619;28;20086;-85
2023/12/28 04:22:53;;;;;;;26.20;7.45;;;;;;;-1.85;100.00;98346.16;2603246;28;20471;-85
2023/12/28 04:24:09;;;;;;;21.58;7.30;;;;;;;-1.95;100.00;98348.50;2603864;28;20108;-85
2023/12/28 04:25:25;;;;;;;17.88;7.00;;;;;;;-1.99;100.00;98350.13;2602257;28;20091;-85
2023/12/28 04:26:41;;;;;;;16.27;6.97;;;;;;;-2.09;100.00;98356.78;2595440;28;20079;-85
2023/12/28 04:27:57;;;;;;;11.93;5.88;;;;;;;-2.29;100.00;98356.34;2606941;28;20021;-85
2023/12/28 04:29:13;;;;;;;12.52;6.35;;;;;;;-2.11;100.00;98352.44;2608985;28;20128;-85
2023/12/28 04:30:31;;;;;;;13.13;5.80;;;;;;;-1.82;100.00;98349.59;2603176;28;20079;-85
2023/12/28 04:31:47;;;;;;;15.15;6.28;;;;;;;-1.63;100.00;98340.56;2596206;28;20126;-85
2023/12/28 04:33:03;;;;;;;14.88;6.25;;;;;;;-1.79;100.00;98345.41;2596992;28;20029;-85
2023/12/28 04:34:19;;;;;;;11.90;5.80;;;;;;;-1.69;100.00;98348.16;2595962;28;20040;-85
2023/12/28 04:35:35;;;;;;;13.23;5.35;;;;;;;-1.76;100.00;98353.16;2603503;28;20056;-85
2023/12/28 04:36:52;;;;;;;11.23;5.78;;;;;;;-1.57;100.00;98350.97;2603249;28;20077;-84
2023/12/28 04:38:08;;;;;;;14.20;5.82;;;;;;;-1.60;100.00;98361.19;2603201;28;20042;-85
2023/12/28 04:39:24;;;;;;;13.65;6.05;;;;;;;-1.44;100.00;98370.03;2602562;28;20035;-85
2023/12/28 04:40:41;;;;;;;13.75;5.80;;;;;;;-1.31;100.00;98371.16;2604151;28;20045;-85
2023/12/28 04:41:58;;;;;;;9.98;5.10;;;;;;;-1.65;100.00;98373.94;2602963;28;20441;-85
2023/12/28 04:43:14;;;;;;;12.30;5.90;;;;;;;-1.78;100.00;98371.97;2602346;28;20087;-85
2023/12/28 04:44:30;;;;;;;16.70;5.75;;;;;;;-1.72;100.00;98369.50;2595992;28;20025;-85
2023/12/28 04:45:47;;;;;;;14.85;6.30;;;;;;;-1.74;100.00;98366.91;2596084;28;20077;-85
2023/12/28 04:47:03;;;;;;;17.15;6.25;;;;;;;-1.68;100.00;98378.97;2596331;28;20086;-85
2023/12/28 04:48:20;;;;;;;17.50;6.30;;;;;;;-1.50;100.00;98372.50;2603333;28;20037;-85
2023/12/28 04:49:37;;;;;;;15.02;5.60;;;;;;;-1.86;100.00;98372.66;2602119;28;20502;-85
2023/12/28 04:50:53;;;;;;;13.80;5.65;;;;;;;-1.98;100.00;98382.66;2603558;28;20033;-85
2023/12/28 04:52:08;;;;;;;15.55;6.00;;;;;;;-1.68;100.00;98378.97;2602026;28;20029;-85
2023/12/28 04:53:24;;;;;;;15.60;6.43;;;;;;;-1.67;100.00;98385.00;2586449;28;20034;-85
2023/12/28 04:54:41;;;;;;;10.63;5.63;;;;;;;-1.72;100.00;98387.47;2595214;28;20408;-85
2023/12/28 04:55:57;;;;;;;12.00;5.43;;;;;;;-1.82;100.00;98388.09;2603239;28;20040;-86
2023/12/28 04:57:13;;;;;;;10.80;5.20;;;;;;;-1.85;100.00;98387.22;2603090;28;20029;-85
2023/12/28 04:58:29;;;;;;;9.43;4.55;;;;;;;-1.93;100.00;98375.94;2602071;28;20042;-84
2023/12/28 04:59:46;;;;;;;10.30;5.03;;;;;;;-1.95;100.00;98380.19;2602493;28;20095;-85
2023/12/28 05:01:02;;;;;;;8.63;4.18;;;;;;;-2.04;100.00;98378.25;2602184;28;20127;-85
2023/12/28 05:02:18;;;;;;;13.25;5.68;;;;;;;-2.21;100.00;98377.91;2603219;28;20040;-85
2023/12/28 05:03:34;;;;;;;10.52;4.72;;;;;;;-2.24;100.00;98382.94;2602919;28;20453;-85
2023/12/28 05:04:50;;;;;;;11.35;5.35;;;;;;;-2.04;100.00;98387.66;2592653;28;20034;-85
2023/12/28 05:06:06;;;;;;;10.35;4.90;;;;;;;-1.91;100.00;98392.22;2589735;28;20047;-85
2023/12/28 05:07:22;;;;;;;14.77;5.40;;;;;;;-1.77;100.00;98396.78;2596267;28;20045;-85
2023/12/28 05:08:38;;;;;;;10.18;5.20;;;;;;;-1.63;100.00;98392.78;2601978;28;20037;-85
2023/12/28 05:09:55;;;;;;;10.20;5.28;;;;;;;-1.60;100.00;98397.13;2592345;28;20547;-85
2023/12/28 05:11:11;;;;;;;10.98;5.18;;;;;;;-1.65;100.00;98393.59;2596246;28;20053;-85
2023/12/28 05:12:27;;;;;;;10.98;5.45;;;;;;;-1.56;100.00;98394.63;2603400;28;20025;-85
2023/12/28 05:13:43;;;;;;;8.95;4.60;;;;;;;-1.87;100.00;98398.28;2602840;28;20112;-85
2023/12/28 05:15:00;;;;;;;8.43;4.38;;;;;;;-1.82;100.00;98391.56;2603526;28;20037;-85
2023/12/28 05:16:17;;;;;;;11.85;4.50;;;;;;;-1.82;100.00;98388.97;2581035;28;20042;-85
2023/12/28 05:17:33;;;;;;;9.75;5.15;;;;;;;-1.71;100.00;98394.31;2591128;28;20049;-85
2023/12/28 05:18:49;;;;;;;9.85;4.38;;;;;;;-1.75;100.00;98392.53;2602064;28;20537;-85
2023/12/28 05:20:06;;;;;;;8.85;4.35;;;;;;;-1.80;100.00;98384.75;2595883;28;20099;-85
2023/12/28 05:21:22;;;;;;;5.32;3.20;;;;;;;-1.84;100.00;98388.09;2595699;28;20033;-85
2023/12/28 05:22:38;;;;;;;5.63;2.80;;;;;;;-1.83;100.00;98392.38;2602842;28;20056;-85
2023/12/28 05:23:54;;;;;;;6.55;2.55;;;;;;;-1.82;100.00;98388.97;2602554;28;20045;-85
2023/12/28 05:25:10;;;;;;;6.65;3.25;;;;;;;-1.61;100.00;98392.81;2603260;28;20487;-85
2023/12/28 05:26:27;;;;;;;3.17;1.63;;;;;;;-1.66;100.00;98385.03;2601802;28;20083;-86
2023/12/28 05:27:43;;;;;;;7.38;3.63;;;;;;;-1.41;100.00;98390.63;2596563;28;20041;-85
2023/12/28 05:28:58;;;;;;;8.07;3.05;;;;;;;-1.28;100.00;98394.31;2601811;28;20053;-86
2023/12/28 05:30:17;;;;;;;8.15;3.47;;;;;;;-1.02;100.00;98399.91;2602649;28;20068;-85
2023/12/28 05:31:33;;;;;;;5.40;2.92;;;;;;;-1.04;100.00;98396.47;2601813;28;20021;-85
2023/12/28 05:32:49;;;;;;;8.48;4.05;;;;;;;-0.88;100.00;98391.59;2595095;28;20046;-85
2023/12/28 05:34:06;;;;;;;8.50;3.83;;;;;;;-0.76;100.00;98390.94;2602533;28;20549;-85
2023/12/28 05:35:22;;;;;;;13.48;5.43;;;;;;;-0.82;100.00;98390.81;2601787;28;20033;-85
2023/12/28 05:36:38;;;;;;;6.43;3.80;;;;;;;-0.81;100.00;98384.84;2596239;28;20317;-85
2023/12/28 05:37:54;;;;;;;9.73;4.13;;;;;;;-1.14;100.00;98390.28;2595646;28;20140;-85
2023/12/28 05:39:11;;;;;;;4.13;2.58;;;;;;;-1.46;100.00;98381.97;2595639;28;20045;-85
2023/12/28 05:40:27;;;;;;;7.28;3.33;;;;;;;-1.38;100.00;98383.00;2602199;28;20446;-85
2023/12/28 05:41:44;;;;;;;9.63;4.80;;;;;;;-1.31;100.00;98396.84;2602211;28;20037;-85
2023/12/28 05:43:00;;;;;;;9.15;4.00;;;;;;;-1.24;100.00;98396.09;2602350;28;20041;-86
2023/12/28 05:44:17;;;;;;;15.57;4.80;;;;;;;-1.23;100.00;98397.81;2602658;28;20061;-85
2023/12/28 05:45:33;;;;;;;11.30;5.18;;;;;;;-1.52;100.00;98399.84;2595718;28;20087;-85
2023/12/28 05:46:49;;;;;;;6.43;3.47;;;;;;;-1.57;100.00;98385.19;2596434;28;20025;-85
2023/12/28 05:48:05;;;;;;;7.63;3.17;;;;;;;-1.23;100.00;98382.41;2595636;28;20045;-85
2023/12/28 05:49:21;;;;;;;5.82;3.15;;;;;;;-1.10;100.00;98378.38;2596318;28;20065;-85
2023/12/28 05:50:37;;;;;;;5.80;3.03;;;;;;;-1.00;100.00;98387.94;2595511;28;20045;-85